createdAt,value
2017-08-07T00:00:17.586Z,1019.7
2017-08-07T00:00:58.480Z,1019.72
2017-08-07T00:01:39.369Z,1019.71
2017-08-07T00:02:20.263Z,1019.69
2017-08-07T00:03:01.153Z,1019.72
2017-08-07T00:03:42.038Z,1019.68
2017-08-07T00:04:22.926Z,1019.7
2017-08-07T00:05:03.840Z,1019.71
2017-08-07T00:05:44.730Z,1019.71
2017-08-07T00:06:25.625Z,1019.72
2017-08-07T00:07:06.513Z,1019.72
2017-08-07T00:07:47.399Z,1019.69
2017-08-07T00:08:28.302Z,1019.7
2017-08-07T00:09:09.199Z,1019.71
2017-08-07T00:09:50.079Z,1019.7
2017-08-07T00:10:30.971Z,1019.68
2017-08-07T00:11:11.867Z,1019.71
2017-08-07T00:11:52.754Z,1019.68
2017-08-07T00:12:33.644Z,1019.74
2017-08-07T00:13:14.550Z,1019.69
2017-08-07T00:13:55.449Z,1019.7
2017-08-07T00:14:36.337Z,1019.7
2017-08-07T00:15:17.226Z,1019.69
2017-08-07T00:15:58.113Z,1019.71
2017-08-07T00:16:39.007Z,1019.72
2017-08-07T00:17:19.895Z,1019.71
2017-08-07T00:18:00.781Z,1019.72
2017-08-07T00:18:41.703Z,1019.71
2017-08-07T00:19:22.582Z,1019.74
2017-08-07T00:20:03.467Z,1019.76
2017-08-07T00:20:44.378Z,1019.75
2017-08-07T00:21:25.266Z,1019.73
2017-08-07T00:22:06.155Z,1019.8
2017-08-07T00:22:47.038Z,1019.77
2017-08-07T00:23:27.930Z,1019.77
2017-08-07T00:24:08.817Z,1019.79
2017-08-07T00:24:49.715Z,1019.77
2017-08-07T00:25:30.603Z,1019.78
2017-08-07T00:26:11.497Z,1019.75
2017-08-07T00:26:52.407Z,1019.78
2017-08-07T00:27:33.295Z,1019.73
2017-08-07T00:28:14.193Z,1019.76
2017-08-07T00:28:55.080Z,1019.73
2017-08-07T00:29:35.978Z,1019.76
2017-08-07T00:30:17.004Z,1019.76
2017-08-07T00:30:57.895Z,1019.77
2017-08-07T00:31:38.790Z,1019.77
2017-08-07T00:32:19.678Z,1019.82
2017-08-07T00:33:00.565Z,1019.83
2017-08-07T00:33:41.444Z,1019.8
2017-08-07T00:34:22.376Z,1019.81
2017-08-07T00:35:03.250Z,1019.79
2017-08-07T00:35:44.141Z,1019.78
2017-08-07T00:36:25.037Z,1019.81
2017-08-07T00:37:05.923Z,1019.83
2017-08-07T00:37:46.815Z,1019.81
2017-08-07T00:38:27.706Z,1019.82
2017-08-07T00:39:08.587Z,1019.81
2017-08-07T00:39:49.478Z,1019.82
2017-08-07T00:40:30.371Z,1019.8
2017-08-07T00:41:11.257Z,1019.81
2017-08-07T00:41:52.155Z,1019.78
2017-08-07T00:42:33.044Z,1019.79
2017-08-07T00:43:13.932Z,1019.81
2017-08-07T00:43:54.820Z,1019.79
2017-08-07T00:44:35.735Z,1019.76
2017-08-07T00:45:16.627Z,1019.72
2017-08-07T00:45:57.516Z,1019.75
2017-08-07T00:46:38.414Z,1019.75
2017-08-07T00:47:19.302Z,1019.78
2017-08-07T00:48:00.195Z,1019.76
2017-08-07T00:48:41.091Z,1019.74
2017-08-07T00:49:21.981Z,1019.73
2017-08-07T00:50:02.870Z,1019.75
2017-08-07T00:50:43.765Z,1019.8
2017-08-07T00:51:24.648Z,1019.78
2017-08-07T00:52:05.538Z,1019.74
2017-08-07T00:52:46.429Z,1019.76
2017-08-07T00:54:56.424Z,1019.76
2017-08-07T00:55:37.317Z,1019.76
2017-08-07T00:56:18.209Z,1019.74
2017-08-07T00:56:59.095Z,1019.75
2017-08-07T00:57:39.993Z,1019.75
2017-08-07T00:58:20.890Z,1019.73
2017-08-07T00:59:01.773Z,1019.74
2017-08-07T00:59:42.664Z,1019.77
2017-08-07T01:00:23.609Z,1019.79
2017-08-07T01:01:04.497Z,1019.76
2017-08-07T01:01:45.381Z,1019.75
2017-08-07T01:02:26.268Z,1019.76
2017-08-07T01:03:07.158Z,1019.79
2017-08-07T01:03:48.058Z,1019.77
2017-08-07T01:04:28.937Z,1019.8
2017-08-07T01:05:09.843Z,1019.83
2017-08-07T01:05:50.735Z,1019.8
2017-08-07T01:06:31.632Z,1019.82
2017-08-07T01:07:12.526Z,1019.83
2017-08-07T01:07:53.419Z,1019.83
2017-08-07T01:08:34.306Z,1019.84
2017-08-07T01:09:15.187Z,1019.82
2017-08-07T01:09:56.085Z,1019.84
2017-08-07T01:10:36.959Z,1019.81
2017-08-07T01:11:17.877Z,1019.83
2017-08-07T01:11:58.768Z,1019.78
2017-08-07T01:12:39.646Z,1019.81
2017-08-07T01:13:20.526Z,1019.79
2017-08-07T01:14:01.426Z,1019.72
2017-08-07T01:14:42.305Z,1019.76
2017-08-07T01:15:23.196Z,1019.75
2017-08-07T01:16:04.095Z,1019.74
2017-08-07T01:16:44.982Z,1019.74
2017-08-07T01:17:25.870Z,1019.72
2017-08-07T01:18:06.759Z,1019.76
2017-08-07T01:18:47.651Z,1019.75
2017-08-07T01:19:28.532Z,1019.77
2017-08-07T01:20:09.420Z,1019.71
2017-08-07T01:20:50.323Z,1019.72
2017-08-07T01:21:31.232Z,1019.7
2017-08-07T01:22:12.113Z,1019.68
2017-08-07T01:22:53.011Z,1019.69
2017-08-07T01:23:33.897Z,1019.7
2017-08-07T01:24:14.785Z,1019.71
2017-08-07T01:24:55.673Z,1019.65
2017-08-07T01:25:36.563Z,1019.71
2017-08-07T01:26:17.457Z,1019.7
2017-08-07T01:26:58.350Z,1019.66
2017-08-07T01:27:39.233Z,1019.66
2017-08-07T01:28:20.151Z,1019.7
2017-08-07T01:29:01.038Z,1019.68
2017-08-07T01:29:41.921Z,1019.66
2017-08-07T01:30:22.796Z,1019.66
2017-08-07T01:31:03.703Z,1019.63
2017-08-07T01:31:44.704Z,1019.63
2017-08-07T01:32:25.542Z,1019.63
2017-08-07T01:33:06.433Z,1019.63
2017-08-07T01:33:47.321Z,1019.67
2017-08-07T01:34:28.210Z,1019.65
2017-08-07T01:35:09.100Z,1019.67
2017-08-07T01:35:49.989Z,1019.67
2017-08-07T01:36:30.875Z,1019.66
2017-08-07T01:37:11.763Z,1019.66
2017-08-07T01:37:52.653Z,1019.68
2017-08-07T01:38:33.545Z,1019.67
2017-08-07T01:39:14.447Z,1019.68
2017-08-07T01:39:55.360Z,1019.68
2017-08-07T01:40:36.251Z,1019.66
2017-08-07T01:41:17.150Z,1019.66
2017-08-07T01:41:58.036Z,1019.68
2017-08-07T01:42:39.021Z,1019.66
2017-08-07T01:43:19.863Z,1019.69
2017-08-07T01:44:00.749Z,1019.66
2017-08-07T01:44:41.628Z,1019.68
2017-08-07T01:45:22.517Z,1019.7
2017-08-07T01:46:03.414Z,1019.7
2017-08-07T01:46:44.306Z,1019.67
2017-08-07T01:47:25.204Z,1019.67
2017-08-07T01:48:06.087Z,1019.66
2017-08-07T01:48:46.965Z,1019.69
2017-08-07T01:49:27.850Z,1019.7
2017-08-07T01:50:08.744Z,1019.7
2017-08-07T01:50:49.635Z,1019.71
2017-08-07T01:51:30.521Z,1019.67
2017-08-07T01:52:11.414Z,1019.67
2017-08-07T01:52:52.302Z,1019.64
2017-08-07T01:53:33.190Z,1019.67
2017-08-07T01:54:14.089Z,1019.65
2017-08-07T01:54:54.976Z,1019.66
2017-08-07T01:55:35.873Z,1019.64
2017-08-07T01:56:16.757Z,1019.64
2017-08-07T01:56:57.646Z,1019.64
2017-08-07T01:57:38.524Z,1019.63
2017-08-07T01:58:19.411Z,1019.63
2017-08-07T01:59:00.302Z,1019.62
2017-08-07T01:59:41.195Z,1019.63
2017-08-07T02:00:22.089Z,1019.67
2017-08-07T02:01:02.977Z,1019.63
2017-08-07T02:01:43.863Z,1019.63
2017-08-07T02:02:24.780Z,1019.66
2017-08-07T02:03:05.664Z,1019.65
2017-08-07T02:03:46.556Z,1019.65
2017-08-07T02:04:27.439Z,1019.65
2017-08-07T02:05:08.335Z,1019.64
2017-08-07T02:05:49.227Z,1019.65
2017-08-07T02:06:30.115Z,1019.67
2017-08-07T02:07:11.008Z,1019.69
2017-08-07T02:07:51.897Z,1019.71
2017-08-07T02:08:32.790Z,1019.71
2017-08-07T02:09:13.682Z,1019.72
2017-08-07T02:09:54.577Z,1019.72
2017-08-07T02:10:35.468Z,1019.7
2017-08-07T02:11:16.353Z,1019.7
2017-08-07T02:13:15.142Z,1019.66
2017-08-07T02:13:56.036Z,1019.68
2017-08-07T02:14:36.919Z,1019.65
2017-08-07T02:15:17.797Z,1019.69
2017-08-07T02:15:58.684Z,1019.67
2017-08-07T02:16:39.595Z,1019.66
2017-08-07T02:17:20.490Z,1019.63
2017-08-07T02:18:01.377Z,1019.65
2017-08-07T02:18:42.273Z,1019.64
2017-08-07T02:19:23.163Z,1019.65
2017-08-07T02:20:04.031Z,1019.62
2017-08-07T02:20:44.921Z,1019.63
2017-08-07T02:21:25.807Z,1019.62
2017-08-07T02:22:06.697Z,1019.68
2017-08-07T02:22:47.587Z,1019.72
2017-08-07T02:23:28.482Z,1019.66
2017-08-07T02:24:09.374Z,1019.67
2017-08-07T02:24:50.256Z,1019.65
2017-08-07T02:25:31.132Z,1019.66
2017-08-07T02:26:12.105Z,1019.65
2017-08-07T02:26:53.024Z,1019.64
2017-08-07T02:27:33.909Z,1019.66
2017-08-07T02:28:14.799Z,1019.65
2017-08-07T02:28:55.684Z,1019.67
2017-08-07T02:29:36.573Z,1019.69
2017-08-07T02:30:17.467Z,1019.67
2017-08-07T02:30:58.360Z,1019.64
2017-08-07T02:31:39.243Z,1019.67
2017-08-07T02:32:20.133Z,1019.71
2017-08-07T02:33:01.020Z,1019.7
2017-08-07T02:33:41.897Z,1019.66
2017-08-07T02:34:22.790Z,1019.7
2017-08-07T02:35:03.682Z,1019.67
2017-08-07T02:35:44.552Z,1019.67
2017-08-07T02:36:25.452Z,1019.65
2017-08-07T02:37:06.331Z,1019.7
2017-08-07T02:37:47.220Z,1019.67
2017-08-07T02:38:28.111Z,1019.67
2017-08-07T02:39:08.998Z,1019.67
2017-08-07T02:39:49.889Z,1019.69
2017-08-07T02:40:30.779Z,1019.64
2017-08-07T02:41:11.663Z,1019.65
2017-08-07T02:41:52.548Z,1019.63
2017-08-07T02:42:33.443Z,1019.67
2017-08-07T02:43:14.346Z,1019.71
2017-08-07T02:43:55.237Z,1019.67
2017-08-07T02:44:36.121Z,1019.64
2017-08-07T02:45:17.009Z,1019.63
2017-08-07T02:45:57.900Z,1019.63
2017-08-07T02:46:38.779Z,1019.63
2017-08-07T02:47:19.671Z,1019.66
2017-08-07T02:48:00.564Z,1019.64
2017-08-07T02:48:41.453Z,1019.68
2017-08-07T02:49:22.346Z,1019.68
2017-08-07T02:50:03.240Z,1019.67
2017-08-07T02:50:44.119Z,1019.65
2017-08-07T02:51:25.020Z,1019.66
2017-08-07T02:52:05.910Z,1019.66
2017-08-07T02:52:46.800Z,1019.64
2017-08-07T02:53:27.685Z,1019.65
2017-08-07T02:54:08.567Z,1019.64
2017-08-07T02:54:49.453Z,1019.61
2017-08-07T02:55:30.339Z,1019.6
2017-08-07T02:56:11.228Z,1019.66
2017-08-07T02:56:52.118Z,1019.63
2017-08-07T02:57:33.013Z,1019.64
2017-08-07T02:58:13.899Z,1019.68
2017-08-07T02:58:54.789Z,1019.63
2017-08-07T02:59:35.689Z,1019.65
2017-08-07T03:00:16.569Z,1019.67
2017-08-07T03:00:57.458Z,1019.69
2017-08-07T03:01:38.340Z,1019.59
2017-08-07T03:02:19.232Z,1019.62
2017-08-07T03:03:00.116Z,1019.64
2017-08-07T03:03:41.004Z,1019.63
2017-08-07T03:04:21.896Z,1019.64
2017-08-07T03:05:02.783Z,1019.69
2017-08-07T03:05:43.674Z,1019.64
2017-08-07T03:06:24.568Z,1019.65
2017-08-07T03:07:05.450Z,1019.65
2017-08-07T03:07:46.338Z,1019.65
2017-08-07T03:08:27.232Z,1019.63
2017-08-07T03:09:08.122Z,1019.61
2017-08-07T03:09:49.013Z,1019.6
2017-08-07T03:10:29.916Z,1019.62
2017-08-07T03:11:10.810Z,1019.6
2017-08-07T03:11:51.705Z,1019.62
2017-08-07T03:12:32.599Z,1019.59
2017-08-07T03:13:13.485Z,1019.64
2017-08-07T03:13:54.386Z,1019.6
2017-08-07T03:14:35.281Z,1019.6
2017-08-07T03:15:16.163Z,1019.61
2017-08-07T03:15:57.060Z,1019.64
2017-08-07T03:16:37.951Z,1019.61
2017-08-07T03:17:18.834Z,1019.58
2017-08-07T03:17:59.719Z,1019.62
2017-08-07T03:18:40.622Z,1019.61
2017-08-07T03:19:21.514Z,1019.61
2017-08-07T03:20:02.395Z,1019.61
2017-08-07T03:20:43.281Z,1019.59
2017-08-07T03:21:24.172Z,1019.59
2017-08-07T03:22:05.079Z,1019.57
2017-08-07T03:22:45.974Z,1019.61
2017-08-07T03:23:26.861Z,1019.6
2017-08-07T03:24:07.746Z,1019.59
2017-08-07T03:24:48.624Z,1019.6
2017-08-07T03:25:29.512Z,1019.64
2017-08-07T03:26:10.454Z,1019.57
2017-08-07T03:26:51.341Z,1019.57
2017-08-07T03:27:32.231Z,1019.58
2017-08-07T03:28:13.119Z,1019.56
2017-08-07T03:28:54.004Z,1019.56
2017-08-07T03:29:34.891Z,1019.57
2017-08-07T03:30:15.780Z,1019.57
2017-08-07T03:30:56.678Z,1019.57
2017-08-07T03:31:37.561Z,1019.55
2017-08-07T03:32:18.451Z,1019.57
2017-08-07T03:32:59.353Z,1019.58
2017-08-07T03:33:40.231Z,1019.55
2017-08-07T03:34:21.109Z,1019.58
2017-08-07T03:35:02.027Z,1019.6
2017-08-07T03:35:42.905Z,1019.59
2017-08-07T03:36:23.787Z,1019.57
2017-08-07T03:37:04.668Z,1019.57
2017-08-07T03:37:45.564Z,1019.58
2017-08-07T03:38:26.447Z,1019.59
2017-08-07T03:39:07.333Z,1019.64
2017-08-07T03:39:48.218Z,1019.63
2017-08-07T03:40:29.106Z,1019.63
2017-08-07T03:41:10.007Z,1019.64
2017-08-07T03:41:50.894Z,1019.64
2017-08-07T03:42:31.782Z,1019.67
2017-08-07T03:43:12.677Z,1019.69
2017-08-07T03:43:53.568Z,1019.65
2017-08-07T03:44:34.446Z,1019.67
2017-08-07T03:45:15.335Z,1019.64
2017-08-07T03:45:56.346Z,1019.67
2017-08-07T03:46:37.265Z,1019.67
2017-08-07T03:47:18.159Z,1019.66
2017-08-07T03:47:59.057Z,1019.67
2017-08-07T03:48:39.947Z,1019.64
2017-08-07T03:49:20.831Z,1019.63
2017-08-07T03:50:01.712Z,1019.66
2017-08-07T03:50:42.608Z,1019.69
2017-08-07T03:51:23.508Z,1019.71
2017-08-07T03:52:04.399Z,1019.71
2017-08-07T03:52:45.285Z,1019.71
2017-08-07T03:53:26.178Z,1019.7
2017-08-07T03:54:07.056Z,1019.71
2017-08-07T03:54:47.945Z,1019.68
2017-08-07T03:55:28.825Z,1019.71
2017-08-07T03:56:09.716Z,1019.71
2017-08-07T03:56:50.605Z,1019.72
2017-08-07T03:57:31.488Z,1019.74
2017-08-07T03:58:12.378Z,1019.75
2017-08-07T03:58:53.282Z,1019.73
2017-08-07T03:59:34.167Z,1019.75
2017-08-07T04:00:15.055Z,1019.72
2017-08-07T04:00:55.944Z,1019.74
2017-08-07T04:01:36.829Z,1019.72
2017-08-07T04:02:17.720Z,1019.75
2017-08-07T04:02:58.621Z,1019.73
2017-08-07T04:03:39.497Z,1019.75
2017-08-07T04:04:20.385Z,1019.71
2017-08-07T04:05:01.267Z,1019.73
2017-08-07T04:05:42.154Z,1019.78
2017-08-07T04:06:23.047Z,1019.76
2017-08-07T04:07:03.928Z,1019.74
2017-08-07T04:07:44.820Z,1019.74
2017-08-07T04:08:25.747Z,1019.72
2017-08-07T04:09:06.638Z,1019.74
2017-08-07T04:09:47.523Z,1019.75
2017-08-07T04:10:28.414Z,1019.75
2017-08-07T04:11:09.305Z,1019.76
2017-08-07T04:11:50.196Z,1019.73
2017-08-07T04:12:31.086Z,1019.75
2017-08-07T04:13:12.017Z,1019.77
2017-08-07T04:13:52.906Z,1019.75
2017-08-07T04:14:33.789Z,1019.76
2017-08-07T04:15:14.681Z,1019.74
2017-08-07T04:15:55.568Z,1019.71
2017-08-07T04:16:36.462Z,1019.72
2017-08-07T04:17:17.365Z,1019.74
2017-08-07T04:17:58.240Z,1019.72
2017-08-07T04:18:39.118Z,1019.76
2017-08-07T04:20:18.829Z,1019.77
2017-08-07T04:20:59.839Z,1019.78
2017-08-07T04:21:40.724Z,1019.8
2017-08-07T04:22:21.616Z,1019.79
2017-08-07T04:23:02.482Z,1019.75
2017-08-07T04:23:43.371Z,1019.78
2017-08-07T04:24:24.271Z,1019.79
2017-08-07T04:25:05.151Z,1019.77
2017-08-07T04:25:46.030Z,1019.79
2017-08-07T04:26:26.906Z,1019.76
2017-08-07T04:27:07.805Z,1019.75
2017-08-07T04:27:48.692Z,1019.78
2017-08-07T04:28:29.567Z,1019.77
2017-08-07T04:29:10.494Z,1019.77
2017-08-07T04:33:51.607Z,1019.84
2017-08-07T04:34:32.489Z,1019.78
2017-08-07T04:35:13.394Z,1019.84
2017-08-07T04:35:54.282Z,1019.81
2017-08-07T04:36:35.150Z,1019.85
2017-08-07T04:37:16.043Z,1019.82
2017-08-07T04:37:56.926Z,1019.83
2017-08-07T04:38:37.808Z,1019.81
2017-08-07T04:39:18.675Z,1019.83
2017-08-07T04:39:59.564Z,1019.8
2017-08-07T04:40:40.464Z,1019.8
2017-08-07T04:41:21.437Z,1019.81
2017-08-07T04:42:02.304Z,1019.82
2017-08-07T04:42:43.208Z,1019.81
2017-08-07T04:43:24.096Z,1019.8
2017-08-07T04:44:04.966Z,1019.81
2017-08-07T04:44:45.838Z,1019.79
2017-08-07T04:45:26.732Z,1019.8
2017-08-07T04:46:07.629Z,1019.81
2017-08-07T04:46:48.504Z,1019.8
2017-08-07T04:47:29.389Z,1019.83
2017-08-07T04:48:10.286Z,1019.82
2017-08-07T04:48:51.176Z,1019.82
2017-08-07T04:49:32.049Z,1019.83
2017-08-07T04:50:12.955Z,1019.81
2017-08-07T04:50:53.841Z,1019.82
2017-08-07T04:51:34.729Z,1019.81
2017-08-07T04:52:15.662Z,1019.82
2017-08-07T04:52:56.515Z,1019.8
2017-08-07T04:53:37.403Z,1019.78
2017-08-07T04:54:18.294Z,1019.77
2017-08-07T04:54:59.185Z,1019.8
2017-08-07T04:55:40.177Z,1019.77
2017-08-07T04:57:13.452Z,1019.8
2017-08-07T04:57:54.364Z,1019.81
2017-08-07T04:58:35.263Z,1019.81
2017-08-07T04:59:16.138Z,1019.76
2017-08-07T04:59:57.035Z,1019.79
2017-08-07T05:00:37.906Z,1019.74
2017-08-07T05:01:18.790Z,1019.75
2017-08-07T05:01:59.673Z,1019.74
2017-08-07T05:02:40.572Z,1019.76
2017-08-07T05:03:21.449Z,1019.72
2017-08-07T05:04:02.321Z,1019.72
2017-08-07T05:04:43.204Z,1019.71
2017-08-07T05:05:24.089Z,1019.73
2017-08-07T05:06:04.983Z,1019.72
2017-08-07T05:06:45.871Z,1019.71
2017-08-07T05:07:26.758Z,1019.69
2017-08-07T05:08:07.641Z,1019.71
2017-08-07T05:08:48.535Z,1019.73
2017-08-07T05:09:29.402Z,1019.72
2017-08-07T05:10:10.271Z,1019.71
2017-08-07T05:10:51.165Z,1019.72
2017-08-07T05:11:32.064Z,1019.7
2017-08-07T05:12:12.946Z,1019.77
2017-08-07T05:12:53.843Z,1019.72
2017-08-07T05:13:34.738Z,1019.76
2017-08-07T05:14:15.613Z,1019.76
2017-08-07T05:14:56.494Z,1019.77
2017-08-07T05:15:37.396Z,1019.75
2017-08-07T05:16:18.289Z,1019.74
2017-08-07T05:16:59.155Z,1019.82
2017-08-07T05:17:40.021Z,1019.78
2017-08-07T05:18:20.914Z,1019.77
2017-08-07T05:19:01.789Z,1019.79
2017-08-07T05:19:42.678Z,1019.77
2017-08-07T05:20:23.536Z,1019.75
2017-08-07T05:21:04.419Z,1019.71
2017-08-07T05:21:45.312Z,1019.71
2017-08-07T05:22:26.200Z,1019.71
2017-08-07T05:23:07.080Z,1019.72
2017-08-07T05:23:47.965Z,1019.71
2017-08-07T05:24:28.874Z,1019.72
2017-08-07T05:25:09.759Z,1019.7
2017-08-07T05:25:50.677Z,1019.73
2017-08-07T05:26:31.564Z,1019.77
2017-08-07T05:27:12.455Z,1019.71
2017-08-07T05:27:53.383Z,1019.72
2017-08-07T05:28:34.225Z,1019.7
2017-08-07T05:29:15.124Z,1019.69
2017-08-07T05:29:56.014Z,1019.7
2017-08-07T05:30:36.898Z,1019.71
2017-08-07T05:31:17.786Z,1019.68
2017-08-07T05:31:58.683Z,1019.67
2017-08-07T05:32:39.574Z,1019.67
2017-08-07T05:33:20.456Z,1019.67
2017-08-07T05:34:01.347Z,1019.67
2017-08-07T05:34:42.232Z,1019.69
2017-08-07T05:35:23.110Z,1019.7
2017-08-07T05:36:03.994Z,1019.71
2017-08-07T05:36:44.876Z,1019.68
2017-08-07T05:37:25.770Z,1019.72
2017-08-07T05:38:06.656Z,1019.7
2017-08-07T05:38:47.538Z,1019.69
2017-08-07T05:39:28.424Z,1019.72
2017-08-07T05:40:09.311Z,1019.71
2017-08-07T05:40:50.214Z,1019.69
2017-08-07T05:43:00.219Z,1019.71
2017-08-07T05:43:41.097Z,1019.77
2017-08-07T05:44:21.990Z,1019.71
2017-08-07T05:45:02.879Z,1019.73
2017-08-07T05:45:43.818Z,1019.7
2017-08-07T05:46:24.713Z,1019.72
2017-08-07T05:47:05.590Z,1019.7
2017-08-07T05:47:46.474Z,1019.71
2017-08-07T05:48:27.393Z,1019.69
2017-08-07T05:49:08.275Z,1019.68
2017-08-07T05:49:49.154Z,1019.65
2017-08-07T05:50:30.058Z,1019.7
2017-08-07T05:51:10.933Z,1019.66
2017-08-07T05:51:51.829Z,1019.67
2017-08-07T05:52:32.730Z,1019.69
2017-08-07T05:53:13.619Z,1019.68
2017-08-07T05:55:22.633Z,1019.67
2017-08-07T05:56:03.512Z,1019.67
2017-08-07T05:56:44.396Z,1019.67
2017-08-07T05:57:25.286Z,1019.67
2017-08-07T05:58:06.178Z,1019.64
2017-08-07T05:58:47.064Z,1019.67
2017-08-07T05:59:27.962Z,1019.64
2017-08-07T06:00:08.852Z,1019.62
2017-08-07T06:00:49.725Z,1019.64
2017-08-07T06:01:30.625Z,1019.66
2017-08-07T06:02:11.516Z,1019.65
2017-08-07T06:02:52.401Z,1019.64
2017-08-07T06:03:33.284Z,1019.65
2017-08-07T06:04:14.215Z,1019.67
2017-08-07T06:04:55.096Z,1019.67
2017-08-07T06:05:35.992Z,1019.69
2017-08-07T06:07:34.913Z,1019.66
2017-08-07T06:08:15.789Z,1019.66
2017-08-07T06:08:56.665Z,1019.69
2017-08-07T06:09:37.642Z,1019.7
2017-08-07T06:10:18.533Z,1019.69
2017-08-07T06:10:59.408Z,1019.68
2017-08-07T06:11:40.288Z,1019.65
2017-08-07T06:12:21.158Z,1019.64
2017-08-07T06:13:02.055Z,1019.63
2017-08-07T06:13:42.940Z,1019.6
2017-08-07T06:14:23.829Z,1019.64
2017-08-07T06:15:04.769Z,1019.66
2017-08-07T06:15:45.608Z,1019.65
2017-08-07T06:16:26.471Z,1019.62
2017-08-07T06:17:07.364Z,1019.6
2017-08-07T06:17:48.257Z,1019.62
2017-08-07T06:18:29.141Z,1019.59
2017-08-07T06:19:10.025Z,1019.6
2017-08-07T06:19:50.945Z,1019.58
2017-08-07T06:20:31.821Z,1019.6
2017-08-07T06:21:12.684Z,1019.59
2017-08-07T06:21:53.588Z,1019.63
2017-08-07T06:22:34.477Z,1019.62
2017-08-07T06:23:15.360Z,1019.62
2017-08-07T06:23:56.270Z,1019.64
2017-08-07T06:24:37.151Z,1019.66
2017-08-07T06:25:18.016Z,1019.65
2017-08-07T06:25:58.898Z,1019.66
2017-08-07T06:26:39.788Z,1019.64
2017-08-07T06:27:20.687Z,1019.65
2017-08-07T06:28:01.576Z,1019.64
2017-08-07T06:28:42.464Z,1019.62
2017-08-07T06:29:23.363Z,1019.62
2017-08-07T06:30:04.263Z,1019.63
2017-08-07T06:30:45.140Z,1019.65
2017-08-07T06:31:26.040Z,1019.62
2017-08-07T06:32:06.923Z,1019.67
2017-08-07T06:32:47.809Z,1019.62
2017-08-07T06:33:28.719Z,1019.64
2017-08-07T06:34:09.602Z,1019.58
2017-08-07T06:34:50.503Z,1019.59
2017-08-07T06:35:31.407Z,1019.63
2017-08-07T06:36:12.284Z,1019.55
2017-08-07T06:36:53.177Z,1019.59
2017-08-07T06:37:34.082Z,1019.63
2017-08-07T06:38:14.964Z,1019.62
2017-08-07T06:38:55.860Z,1019.66
2017-08-07T06:39:36.742Z,1019.62
2017-08-07T06:40:17.623Z,1019.61
2017-08-07T06:40:58.504Z,1019.61
2017-08-07T06:41:39.405Z,1019.58
2017-08-07T06:42:20.302Z,1019.59
2017-08-07T06:43:01.190Z,1019.59
2017-08-07T06:43:42.097Z,1019.61
2017-08-07T06:44:22.990Z,1019.6
2017-08-07T06:45:03.900Z,1019.6
2017-08-07T06:45:44.802Z,1019.58
2017-08-07T06:46:25.697Z,1019.62
2017-08-07T06:47:06.595Z,1019.59
2017-08-07T06:47:47.486Z,1019.59
2017-08-07T06:48:28.382Z,1019.6
2017-08-07T06:49:09.280Z,1019.6
2017-08-07T06:49:50.165Z,1019.64
2017-08-07T06:50:31.070Z,1019.65
2017-08-07T06:51:11.962Z,1019.63
2017-08-07T06:51:52.871Z,1019.56
2017-08-07T06:52:33.809Z,1019.56
2017-08-07T06:53:14.720Z,1019.6
2017-08-07T06:55:14.511Z,1019.58
2017-08-07T06:55:55.399Z,1019.56
2017-08-07T06:56:36.297Z,1019.59
2017-08-07T06:57:17.202Z,1019.58
2017-08-07T06:57:58.095Z,1019.59
2017-08-07T06:58:39.162Z,1019.6
2017-08-07T06:59:20.053Z,1019.57
2017-08-07T07:00:01.747Z,1019.55
2017-08-07T07:00:42.643Z,1019.58
2017-08-07T07:01:23.531Z,1019.52
2017-08-07T07:02:04.430Z,1019.53
2017-08-07T07:02:45.321Z,1019.54
2017-08-07T07:03:26.224Z,1019.54
2017-08-07T07:04:07.140Z,1019.51
2017-08-07T07:04:48.036Z,1019.52
2017-08-07T07:05:28.928Z,1019.52
2017-08-07T07:06:09.821Z,1019.52
2017-08-07T07:06:50.721Z,1019.54
2017-08-07T07:07:31.637Z,1019.56
2017-08-07T07:08:12.533Z,1019.51
2017-08-07T07:08:53.440Z,1019.51
2017-08-07T07:09:34.333Z,1019.48
2017-08-07T07:10:15.233Z,1019.51
2017-08-07T07:10:56.138Z,1019.53
2017-08-07T07:11:37.045Z,1019.49
2017-08-07T07:12:17.938Z,1019.51
2017-08-07T07:12:58.843Z,1019.5
2017-08-07T07:13:39.763Z,1019.46
2017-08-07T07:14:20.665Z,1019.51
2017-08-07T07:15:01.567Z,1019.51
2017-08-07T07:15:42.453Z,1019.52
2017-08-07T07:16:23.384Z,1019.49
2017-08-07T07:17:04.283Z,1019.48
2017-08-07T07:17:45.191Z,1019.54
2017-08-07T07:18:26.094Z,1019.52
2017-08-07T07:19:06.993Z,1019.51
2017-08-07T07:19:47.889Z,1019.53
2017-08-07T07:20:28.781Z,1019.51
2017-08-07T07:21:09.691Z,1019.5
2017-08-07T07:21:50.581Z,1019.51
2017-08-07T07:22:31.485Z,1019.51
2017-08-07T07:23:12.374Z,1019.5
2017-08-07T07:23:53.260Z,1019.51
2017-08-07T07:24:34.176Z,1019.48
2017-08-07T07:25:15.083Z,1019.5
2017-08-07T07:25:55.994Z,1019.5
2017-08-07T07:26:36.882Z,1019.53
2017-08-07T07:27:17.791Z,1019.52
2017-08-07T07:27:58.688Z,1019.49
2017-08-07T07:28:39.585Z,1019.49
2017-08-07T07:29:20.489Z,1019.49
2017-08-07T07:30:01.376Z,1019.48
2017-08-07T07:30:42.285Z,1019.5
2017-08-07T07:31:23.187Z,1019.47
2017-08-07T07:32:04.086Z,1019.46
2017-08-07T07:32:45.035Z,1019.48
2017-08-07T07:33:25.940Z,1019.47
2017-08-07T07:34:06.965Z,1019.46
2017-08-07T07:34:47.752Z,1019.5
2017-08-07T07:35:28.642Z,1019.51
2017-08-07T07:36:09.557Z,1019.5
2017-08-07T07:36:50.447Z,1019.48
2017-08-07T07:37:31.344Z,1019.45
2017-08-07T07:38:12.220Z,1019.45
2017-08-07T07:38:53.903Z,1019.47
2017-08-07T07:39:34.826Z,1019.44
2017-08-07T07:40:15.731Z,1019.44
2017-08-07T07:40:56.638Z,1019.45
2017-08-07T07:41:37.541Z,1019.42
2017-08-07T07:42:18.433Z,1019.43
2017-08-07T07:42:59.327Z,1019.48
2017-08-07T07:43:40.254Z,1019.45
2017-08-07T07:44:21.140Z,1019.46
2017-08-07T07:45:02.046Z,1019.45
2017-08-07T07:45:42.954Z,1019.43
2017-08-07T07:46:23.855Z,1019.49
2017-08-07T07:47:04.756Z,1019.45
2017-08-07T07:47:45.654Z,1019.42
2017-08-07T07:48:26.546Z,1019.45
2017-08-07T07:49:07.444Z,1019.43
2017-08-07T07:49:48.338Z,1019.46
2017-08-07T07:50:29.248Z,1019.46
2017-08-07T07:51:10.151Z,1019.47
2017-08-07T07:51:51.056Z,1019.43
2017-08-07T07:52:31.959Z,1019.47
2017-08-07T07:53:12.890Z,1019.46
2017-08-07T07:53:53.797Z,1019.47
2017-08-07T07:54:34.692Z,1019.48
2017-08-07T07:55:15.570Z,1019.47
2017-08-07T07:55:56.467Z,1019.46
2017-08-07T07:56:37.352Z,1019.48
2017-08-07T07:57:18.456Z,1019.46
2017-08-07T07:57:59.372Z,1019.44
2017-08-07T07:59:37.996Z,1019.43
2017-08-07T08:00:18.895Z,1019.41
2017-08-07T08:00:59.819Z,1019.4
2017-08-07T08:01:40.720Z,1019.39
2017-08-07T08:02:21.627Z,1019.44
2017-08-07T08:03:02.530Z,1019.4
2017-08-07T08:03:43.436Z,1019.4
2017-08-07T08:04:24.342Z,1019.42
2017-08-07T08:05:05.250Z,1019.43
2017-08-07T08:05:46.587Z,1019.39
2017-08-07T08:06:27.523Z,1019.46
2017-08-07T08:07:08.415Z,1019.43
2017-08-07T08:07:49.307Z,1019.41
2017-08-07T08:08:30.184Z,1019.4
2017-08-07T08:09:11.103Z,1019.42
2017-08-07T08:09:51.991Z,1019.37
2017-08-07T08:10:32.906Z,1019.35
2017-08-07T08:11:13.790Z,1019.36
2017-08-07T08:11:54.676Z,1019.34
2017-08-07T08:12:35.567Z,1019.31
2017-08-07T08:13:17.336Z,1019.35
2017-08-07T08:13:57.362Z,1019.32
2017-08-07T08:14:38.271Z,1019.33
2017-08-07T08:15:19.161Z,1019.35
2017-08-07T08:16:00.114Z,1019.36
2017-08-07T08:16:41.077Z,1019.33
2017-08-07T08:17:21.951Z,1019.34
2017-08-07T08:18:02.851Z,1019.33
2017-08-07T08:18:43.748Z,1019.38
2017-08-07T08:19:24.641Z,1019.36
2017-08-07T08:20:05.722Z,1019.32
2017-08-07T08:20:46.619Z,1019.32
2017-08-07T08:21:27.514Z,1019.29
2017-08-07T08:22:08.410Z,1019.27
2017-08-07T08:22:49.310Z,1019.29
2017-08-07T08:23:30.224Z,1019.29
2017-08-07T08:24:11.139Z,1019.27
2017-08-07T08:24:52.053Z,1019.22
2017-08-07T08:25:32.936Z,1019.27
2017-08-07T08:26:13.864Z,1019.22
2017-08-07T08:26:54.761Z,1019.25
2017-08-07T08:27:35.661Z,1019.26
2017-08-07T08:28:17.358Z,1019.24
2017-08-07T08:29:50.686Z,1019.26
2017-08-07T08:30:31.610Z,1019.25
2017-08-07T08:31:12.503Z,1019.24
2017-08-07T08:31:53.395Z,1019.19
2017-08-07T08:32:34.285Z,1019.26